createdAt,value
2018-11-12T00:02:27.506Z,12.60
2018-11-12T00:05:30.508Z,12.70
2018-11-12T00:08:33.501Z,12.60
2018-11-12T00:11:36.495Z,12.60
2018-11-12T00:14:39.452Z,12.60
2018-11-12T00:17:42.380Z,12.70
2018-11-12T00:20:45.329Z,12.60
2018-11-12T00:23:48.908Z,12.60
2018-11-12T00:26:51.831Z,12.50
2018-11-12T00:29:54.778Z,12.60
2018-11-12T00:32:57.670Z,12.60
2018-11-12T00:36:01.450Z,12.60
2018-11-12T00:39:08.552Z,12.60
2018-11-12T00:42:11.498Z,12.60
2018-11-12T00:45:15.469Z,12.60
2018-11-12T00:48:22.144Z,12.60
2018-11-12T00:51:25.868Z,12.70
2018-11-12T00:54:28.802Z,12.80
2018-11-12T00:57:31.701Z,12.80
2018-11-12T01:00:34.621Z,12.70
2018-11-12T01:03:37.576Z,12.60
2018-11-12T01:06:40.470Z,12.60
2018-11-12T01:09:43.407Z,12.60
2018-11-12T01:12:46.663Z,12.60
2018-11-12T01:15:49.577Z,12.70
2018-11-12T01:18:52.461Z,12.70
2018-11-12T01:21:55.459Z,12.70
2018-11-12T01:24:58.381Z,12.70
2018-11-12T01:28:01.305Z,12.60
2018-11-12T01:31:05.505Z,12.60
2018-11-12T01:34:08.430Z,12.60
2018-11-12T01:37:11.346Z,12.60
2018-11-12T01:40:14.986Z,12.60
2018-11-12T01:43:17.920Z,12.50
2018-11-12T01:46:20.861Z,12.50
2018-11-12T01:49:23.846Z,12.60
2018-11-12T01:52:26.750Z,12.60
2018-11-12T01:55:30.339Z,12.50
2018-11-12T01:58:33.270Z,12.40
2018-11-12T02:01:36.185Z,12.40
2018-11-12T02:04:39.161Z,12.40
2018-11-12T02:07:42.845Z,12.30
2018-11-12T02:10:45.848Z,12.30
2018-11-12T02:13:48.774Z,12.30
2018-11-12T02:16:51.776Z,12.30
2018-11-12T02:19:55.532Z,12.30
2018-11-12T02:22:59.149Z,12.30
2018-11-12T02:26:02.328Z,12.40
2018-11-12T02:29:05.819Z,12.50
2018-11-12T02:32:08.769Z,12.40
2018-11-12T02:35:11.745Z,12.50
2018-11-12T02:38:14.662Z,12.50
2018-11-12T02:41:17.574Z,12.50
2018-11-12T02:44:20.462Z,12.50
2018-11-12T02:47:23.427Z,12.50
2018-11-12T02:50:26.393Z,12.50
2018-11-12T02:53:29.370Z,12.40
2018-11-12T02:56:33.076Z,12.40
2018-11-12T02:59:37.696Z,12.50
2018-11-12T03:02:40.977Z,12.50
2018-11-12T03:05:43.877Z,12.50
2018-11-12T03:08:46.817Z,12.50
2018-11-12T03:11:49.765Z,12.50
2018-11-12T03:14:53.299Z,12.50
2018-11-12T03:17:56.226Z,12.50
2018-11-12T03:20:59.879Z,12.50
2018-11-12T03:24:02.845Z,12.50
2018-11-12T03:27:05.841Z,12.50
2018-11-12T03:30:11.474Z,12.50
2018-11-12T03:33:15.598Z,12.50
2018-11-12T03:36:18.566Z,12.50
2018-11-12T03:39:21.446Z,12.50
2018-11-12T03:42:24.383Z,12.50
2018-11-12T03:45:27.315Z,12.60
2018-11-12T03:48:30.228Z,12.50
2018-11-12T03:51:33.123Z,12.50
2018-11-12T03:54:36.120Z,12.50
2018-11-12T03:57:39.101Z,12.50
2018-11-12T04:00:42.025Z,12.40
2018-11-12T04:03:44.985Z,12.50
2018-11-12T04:06:47.920Z,12.50
2018-11-12T04:09:51.732Z,12.50
2018-11-12T04:12:54.681Z,12.50
2018-11-12T04:15:57.637Z,12.50
2018-11-12T04:19:00.538Z,12.50
2018-11-12T04:22:04.522Z,12.60
2018-11-12T04:25:08.896Z,12.70
2018-11-12T04:28:11.880Z,12.60
2018-11-12T04:31:14.774Z,12.60
2018-11-12T04:34:18.534Z,12.60
2018-11-12T04:37:21.505Z,12.60
2018-11-12T04:40:24.469Z,12.70
2018-11-12T04:43:27.447Z,12.60
2018-11-12T04:46:31.188Z,12.50
2018-11-12T04:49:34.126Z,12.50
2018-11-12T04:52:37.158Z,12.50
2018-11-12T04:55:40.132Z,12.60
2018-11-12T04:58:43.103Z,12.60
2018-11-12T05:01:46.089Z,12.60
2018-11-12T05:04:49.041Z,12.60
2018-11-12T05:07:52.109Z,12.60
2018-11-12T05:10:55.034Z,12.60
2018-11-12T05:13:57.963Z,12.50
2018-11-12T05:17:00.897Z,12.60
2018-11-12T05:20:04.062Z,12.70
2018-11-12T05:23:07.039Z,12.70
2018-11-12T05:26:10.721Z,12.60
2018-11-12T05:29:13.760Z,12.60
2018-11-12T05:32:16.674Z,12.60
2018-11-12T05:35:20.837Z,12.60
2018-11-12T05:38:23.849Z,12.60
2018-11-12T05:41:26.710Z,12.60
2018-11-12T05:44:29.704Z,12.60
2018-11-12T05:47:33.260Z,12.70
2018-11-12T05:50:36.236Z,12.60
2018-11-12T05:53:39.192Z,12.60
2018-11-12T05:56:42.142Z,12.60
2018-11-12T05:59:45.017Z,12.50
2018-11-12T06:02:47.934Z,12.60
2018-11-12T06:05:51.468Z,12.50
2018-11-12T06:08:55.067Z,12.50
2018-11-12T06:11:58.013Z,12.40
2018-11-12T06:15:00.901Z,12.40
2018-11-12T06:18:04.639Z,12.40
2018-11-12T06:21:07.636Z,12.50
2018-11-12T06:24:10.621Z,12.50
2018-11-12T06:27:13.601Z,12.50
2018-11-12T06:30:17.853Z,12.60
2018-11-12T06:33:21.238Z,12.60
2018-11-12T06:36:24.192Z,12.60
2018-11-12T06:39:27.692Z,12.50
2018-11-12T06:42:30.752Z,12.50
2018-11-12T06:45:33.702Z,12.50
2018-11-12T06:48:36.649Z,12.50
2018-11-12T06:51:39.596Z,12.40
2018-11-12T06:54:42.506Z,12.50
2018-11-12T06:57:45.737Z,12.60
2018-11-12T07:00:48.661Z,12.60
2018-11-12T07:03:51.620Z,12.60
2018-11-12T07:06:54.617Z,12.70
2018-11-12T07:09:57.499Z,12.70
2018-11-12T07:13:00.692Z,12.70
2018-11-12T07:16:03.711Z,12.80
2018-11-12T07:19:06.628Z,12.80
2018-11-12T07:22:10.232Z,12.80
2018-11-12T07:25:13.928Z,12.80
2018-11-12T07:28:16.800Z,12.70
2018-11-12T07:31:19.810Z,12.70
2018-11-12T07:34:22.689Z,12.70
2018-11-12T07:37:25.649Z,12.70
2018-11-12T07:40:28.601Z,12.80
2018-11-12T07:43:31.538Z,12.80
2018-11-12T07:46:34.497Z,12.80
2018-11-12T07:49:37.452Z,12.80
2018-11-12T07:52:40.665Z,12.80
2018-11-12T07:55:43.631Z,12.90
2018-11-12T07:58:46.537Z,12.90
2018-11-12T08:01:49.522Z,12.90
2018-11-12T08:04:52.443Z,12.90
2018-11-12T08:07:55.432Z,13.00
2018-11-12T08:10:58.395Z,12.90
2018-11-12T08:14:01.301Z,13.00
2018-11-12T08:17:04.250Z,13.00
2018-11-12T08:20:10.360Z,12.90
2018-11-12T08:23:13.234Z,13.00
2018-11-12T08:26:16.178Z,13.00
2018-11-12T08:29:19.079Z,13.00
2018-11-12T08:32:22.051Z,13.10
2018-11-12T08:35:25.497Z,13.20
2018-11-12T08:38:28.777Z,13.10
2018-11-12T08:41:31.808Z,13.10
2018-11-12T08:44:34.706Z,13.10
2018-11-12T08:47:38.286Z,13.10
2018-11-12T08:50:41.223Z,13.00
2018-11-12T08:53:44.823Z,13.10
2018-11-12T08:56:48.413Z,13.10
2018-11-12T08:59:51.966Z,13.10
2018-11-12T09:02:55.673Z,13.10
2018-11-12T09:05:58.633Z,13.10
2018-11-12T09:09:02.638Z,13.10
2018-11-12T09:12:05.659Z,13.20
2018-11-12T09:15:09.477Z,13.30
2018-11-12T09:18:12.375Z,13.30
2018-11-12T09:21:15.329Z,13.30
2018-11-12T09:24:18.315Z,13.30
2018-11-12T09:27:21.221Z,13.30
2018-11-12T09:30:28.057Z,13.20
2018-11-12T09:33:31.029Z,13.20
2018-11-12T09:36:33.999Z,13.20
2018-11-12T09:39:36.997Z,13.30
2018-11-12T09:42:40.253Z,13.30
2018-11-12T09:45:46.053Z,13.30
2018-11-12T09:48:52.906Z,13.30
2018-11-12T09:51:57.035Z,13.40
2018-11-12T09:55:02.024Z,13.40
2018-11-12T09:58:07.379Z,13.50
2018-11-12T10:01:12.522Z,13.60
2018-11-12T10:04:19.113Z,13.70
2018-11-12T10:07:24.468Z,14.00
2018-11-12T10:10:38.745Z,14.20
2018-11-12T10:13:43.050Z,14.20
2018-11-12T10:16:48.614Z,14.50
2018-11-12T10:19:51.403Z,14.70
2018-11-12T10:22:55.983Z,14.80
2018-11-12T10:26:00.916Z,14.90
2018-11-12T10:29:06.229Z,15.10
2018-11-12T10:32:10.256Z,15.10
2018-11-12T10:35:14.289Z,15.10
2018-11-12T10:38:18.326Z,15.30
2018-11-12T10:41:22.389Z,15.20
2018-11-12T10:44:26.601Z,15.20
2018-11-12T10:47:33.044Z,15.20
2018-11-12T10:50:37.113Z,15.30
2018-11-12T10:53:50.042Z,15.40
2018-11-12T10:56:47.513Z,15.50
2018-11-12T10:59:57.184Z,15.50
2018-11-12T11:03:08.460Z,15.70
2018-11-12T11:06:12.816Z,15.70
2018-11-12T11:09:18.820Z,15.70
2018-11-12T11:12:22.820Z,15.80
2018-11-12T11:15:27.133Z,15.90
2018-11-12T11:18:32.747Z,16.00
2018-11-12T11:21:38.240Z,16.00
2018-11-12T11:24:46.324Z,16.00
2018-11-12T11:27:50.820Z,15.90
2018-11-12T11:30:56.204Z,15.90
2018-11-12T11:34:00.565Z,16.00
2018-11-12T11:37:05.241Z,16.00
2018-11-12T11:40:12.899Z,16.00
2018-11-12T11:43:17.130Z,16.00
2018-11-12T11:46:21.100Z,16.00
2018-11-12T11:49:24.232Z,16.00
2018-11-12T11:52:27.785Z,16.10
2018-11-12T11:55:30.786Z,16.20
2018-11-12T11:58:33.642Z,16.40
2018-11-12T12:01:42.802Z,16.50
2018-11-12T12:04:46.432Z,16.50
2018-11-12T12:07:50.720Z,16.60
2018-11-12T12:10:53.700Z,16.70
2018-11-12T12:13:56.661Z,16.70
2018-11-12T12:16:59.572Z,16.80
2018-11-12T12:20:03.340Z,16.80
2018-11-12T12:23:06.373Z,16.80
2018-11-12T12:26:10.818Z,16.90
2018-11-12T12:29:13.797Z,17.00
2018-11-12T12:32:19.301Z,17.00
2018-11-12T12:35:22.484Z,16.90
2018-11-12T12:38:25.557Z,16.90
2018-11-12T12:41:28.758Z,16.80
2018-11-12T12:44:33.805Z,16.90
2018-11-12T12:47:37.484Z,16.90
2018-11-12T12:50:41.143Z,16.90
2018-11-12T12:53:44.220Z,16.90
2018-11-12T12:56:47.141Z,16.90
2018-11-12T12:59:50.127Z,16.80
2018-11-12T13:02:53.069Z,16.80
2018-11-12T13:05:57.502Z,16.80
2018-11-12T13:09:02.368Z,16.70
2018-11-12T13:12:05.430Z,16.60
2018-11-12T13:15:10.382Z,16.60
2018-11-12T13:18:13.333Z,16.50
2018-11-12T13:21:16.327Z,16.50
2018-11-12T13:24:19.143Z,16.20
2018-11-12T13:27:22.062Z,15.80
2018-11-12T13:30:24.992Z,15.60
2018-11-12T13:33:27.908Z,15.50
2018-11-12T13:36:30.869Z,15.30
2018-11-12T13:39:33.848Z,15.10
2018-11-12T13:42:36.737Z,15.10
2018-11-12T13:45:39.710Z,15.00
2018-11-12T13:48:43.017Z,14.90
2018-11-12T13:51:45.930Z,14.80
2018-11-12T13:54:48.853Z,14.70
2018-11-12T13:57:52.005Z,14.60
2018-11-12T14:00:54.983Z,14.60
2018-11-12T14:03:58.063Z,14.50
2018-11-12T14:07:00.973Z,14.50
2018-11-12T14:10:04.370Z,14.40
2018-11-12T14:13:07.257Z,14.50
2018-11-12T14:16:10.194Z,14.50
2018-11-12T14:19:13.084Z,14.50
2018-11-12T14:22:15.957Z,14.50
2018-11-12T14:25:19.776Z,14.50
2018-11-12T14:28:22.776Z,14.40
2018-11-12T14:31:25.841Z,14.40
2018-11-12T14:34:28.752Z,14.50
2018-11-12T14:37:31.682Z,14.50
2018-11-12T14:40:34.602Z,14.50
2018-11-12T14:43:37.521Z,14.50
2018-11-12T14:46:40.447Z,14.40
2018-11-12T14:49:43.375Z,14.30
2018-11-12T14:52:46.847Z,14.30
2018-11-12T14:55:49.812Z,14.30
2018-11-12T14:58:52.773Z,14.40
2018-11-12T15:01:55.759Z,14.40
2018-11-12T15:04:58.638Z,14.40
2018-11-12T15:08:01.506Z,14.30
2018-11-12T15:11:04.783Z,14.30
2018-11-12T15:14:08.596Z,14.30
2018-11-12T15:17:11.506Z,14.30
2018-11-12T15:20:15.622Z,14.40
2018-11-12T15:23:18.538Z,14.30
2018-11-12T15:26:21.458Z,14.30
2018-11-12T15:29:24.413Z,14.30
2018-11-12T15:32:27.329Z,14.30
2018-11-12T15:35:30.305Z,14.20
2018-11-12T15:38:33.244Z,14.30
2018-11-12T15:41:36.196Z,14.20
2018-11-12T15:44:39.098Z,14.20
2018-11-12T15:47:42.873Z,14.20
2018-11-12T15:50:45.844Z,14.10
2018-11-12T15:53:48.765Z,14.10
2018-11-12T15:56:51.682Z,14.20
2018-11-12T15:59:54.676Z,14.20
2018-11-12T16:02:57.587Z,14.00
2018-11-12T16:06:00.615Z,13.80
2018-11-12T16:09:06.796Z,13.80
2018-11-12T16:12:09.861Z,13.80
2018-11-12T16:15:14.536Z,13.90
2018-11-12T16:18:17.449Z,13.90
2018-11-12T16:21:20.420Z,13.90
2018-11-12T16:24:23.357Z,14.00
2018-11-12T16:27:26.354Z,14.10
2018-11-12T16:30:29.991Z,14.00
2018-11-12T16:33:32.953Z,14.10
2018-11-12T16:36:35.899Z,14.00
2018-11-12T16:39:38.872Z,13.80
2018-11-12T16:42:42.702Z,13.90
2018-11-12T16:45:45.698Z,14.00
2018-11-12T16:48:48.594Z,13.90
2018-11-12T16:51:51.521Z,14.00
2018-11-12T16:54:54.469Z,13.90
2018-11-12T16:57:57.508Z,13.90
2018-11-12T17:01:01.120Z,13.80
2018-11-12T17:04:04.470Z,13.70
2018-11-12T17:07:07.460Z,13.60
2018-11-12T17:10:12.674Z,13.60
2018-11-12T17:13:15.640Z,13.60
2018-11-12T17:16:18.590Z,13.60
2018-11-12T17:19:22.132Z,13.70
2018-11-12T17:22:26.036Z,13.70
2018-11-12T17:25:29.004Z,13.80
2018-11-12T17:28:31.922Z,13.70
2018-11-12T17:31:34.880Z,13.70
2018-11-12T17:34:37.865Z,13.50
2018-11-12T17:37:40.889Z,13.60
2018-11-12T17:40:43.816Z,13.60
2018-11-12T17:43:47.104Z,13.60
2018-11-12T17:46:50.194Z,13.70
2018-11-12T17:49:53.184Z,13.70
2018-11-12T17:53:02.907Z,13.70
2018-11-12T17:56:05.938Z,13.70
2018-11-12T17:59:08.935Z,13.70
2018-11-12T18:02:11.879Z,13.60
2018-11-12T18:05:14.896Z,13.60
2018-11-12T18:08:17.895Z,13.50
2018-11-12T18:11:20.754Z,13.30
2018-11-12T18:14:23.698Z,13.30
2018-11-12T18:17:26.643Z,13.30
2018-11-12T18:20:29.623Z,13.30
2018-11-12T18:23:32.524Z,13.30
2018-11-12T18:26:35.474Z,13.30
2018-11-12T18:29:38.409Z,13.30
2018-11-12T18:32:41.734Z,13.20
2018-11-12T18:35:44.701Z,13.30
2018-11-12T18:38:47.645Z,13.30
2018-11-12T18:41:50.623Z,13.40
2018-11-12T18:44:53.589Z,13.50
2018-11-12T18:47:57.329Z,13.50
2018-11-12T18:51:00.301Z,13.50
2018-11-12T18:54:03.322Z,13.50
2018-11-12T18:57:06.249Z,13.60
2018-11-12T19:00:11.725Z,13.50
2018-11-12T19:03:14.676Z,13.60
2018-11-12T19:06:17.625Z,13.50
2018-11-12T19:09:20.676Z,13.60
2018-11-12T19:12:23.566Z,13.60
2018-11-12T19:15:28.184Z,13.60
2018-11-12T19:18:31.125Z,13.60
2018-11-12T19:21:34.034Z,13.50
2018-11-12T19:24:36.973Z,13.40
2018-11-12T19:27:40.013Z,13.60
2018-11-12T19:30:42.963Z,13.50
2018-11-12T19:33:45.932Z,13.60
2018-11-12T19:36:48.941Z,13.60
2018-11-12T19:39:51.887Z,13.70
2018-11-12T19:42:55.416Z,13.50
2018-11-12T19:45:58.311Z,13.40
2018-11-12T19:49:01.246Z,13.40
2018-11-12T19:52:04.196Z,13.40
2018-11-12T19:55:07.225Z,13.40
2018-11-12T19:58:10.193Z,13.40
2018-11-12T20:01:13.112Z,13.30
2018-11-12T20:04:16.017Z,13.40
2018-11-12T20:07:19.084Z,13.30
2018-11-12T20:10:22.712Z,13.50
2018-11-12T20:13:25.680Z,13.50
2018-11-12T20:16:28.626Z,13.50
2018-11-12T20:19:31.570Z,13.30
2018-11-12T20:22:34.544Z,13.30
2018-11-12T20:25:37.493Z,13.40
2018-11-12T20:28:40.413Z,13.30
2018-11-12T20:31:43.370Z,13.30
2018-11-12T20:34:46.312Z,13.40
2018-11-12T20:37:49.271Z,13.30
2018-11-12T20:40:52.207Z,13.20
2018-11-12T20:43:55.156Z,13.20
2018-11-12T20:46:58.101Z,15.50
2018-11-12T20:50:01.088Z,17.20
2018-11-12T20:53:04.851Z,17.50
2018-11-12T20:56:08.173Z,17.80
2018-11-12T20:59:11.149Z,17.90
2018-11-12T21:02:14.113Z,17.80
2018-11-12T21:05:17.506Z,17.70
2018-11-12T21:08:20.439Z,17.70
2018-11-12T21:11:23.413Z,17.70
2018-11-12T21:14:26.307Z,17.90
2018-11-12T21:17:29.186Z,18.00
2018-11-12T21:20:32.182Z,18.00
2018-11-12T21:23:35.116Z,18.20
2018-11-12T21:26:38.013Z,18.30
2018-11-12T21:29:40.938Z,17.80
2018-11-12T21:32:44.146Z,16.50
2018-11-12T21:35:47.112Z,15.70
2018-11-12T21:38:50.064Z,15.00
2018-11-12T21:41:52.992Z,15.20
2018-11-12T21:44:55.993Z,14.70
2018-11-12T21:47:58.917Z,14.30
2018-11-12T21:51:01.858Z,14.10
2018-11-12T21:54:05.054Z,14.00
2018-11-12T21:57:08.801Z,13.90
2018-11-12T22:00:19.680Z,13.80
2018-11-12T22:03:22.665Z,13.60
2018-11-12T22:06:25.625Z,13.70
2018-11-12T22:09:28.574Z,13.70
2018-11-12T22:12:31.586Z,13.80
2018-11-12T22:15:34.568Z,13.80
2018-11-12T22:18:37.645Z,13.70
2018-11-12T22:21:40.592Z,13.70
2018-11-12T22:24:43.513Z,13.60
2018-11-12T22:27:47.065Z,13.60
2018-11-12T22:30:50.060Z,13.60
2018-11-12T22:33:52.941Z,13.50
2018-11-12T22:36:55.819Z,13.40
2018-11-12T22:39:58.793Z,13.50
2018-11-12T22:43:01.751Z,13.50
2018-11-12T22:46:04.801Z,13.40
2018-11-12T22:49:07.742Z,13.40
2018-11-12T22:52:10.827Z,13.30
2018-11-12T22:55:15.089Z,13.40
2018-11-12T22:58:18.099Z,13.50
2018-11-12T23:01:21.830Z,13.50
2018-11-12T23:04:24.925Z,13.50
2018-11-12T23:07:27.829Z,13.30
2018-11-12T23:10:30.865Z,13.20
2018-11-12T23:13:34.445Z,13.30
2018-11-12T23:16:37.404Z,13.20
2018-11-12T23:19:40.380Z,13.00
2018-11-12T23:22:44.095Z,12.80
2018-11-12T23:25:46.990Z,12.80
2018-11-12T23:28:49.971Z,12.90
2018-11-12T23:31:52.866Z,12.90
2018-11-12T23:34:55.809Z,13.00
2018-11-12T23:37:58.766Z,12.90
2018-11-12T23:41:01.698Z,12.90
2018-11-12T23:44:04.952Z,13.00
2018-11-12T23:47:07.901Z,13.00
2018-11-12T23:50:13.958Z,13.00
2018-11-12T23:53:16.941Z,13.00
2018-11-12T23:56:19.877Z,13.00
2018-11-12T23:59:22.841Z,12.90
